Time;durP1;ratioP1;P1;durP2;ratioP2;P2;SDS_P1;SDS_P2;PMS_P1;PMS_P2;Temp;Humidity;BMP_temperature;BMP_pressure;BME280_temperature;BME280_humidity;BME280_pressure;Samples;Min_cycle;Max_cycle;Signal;HPM_P1;HPM_P2
2022/07/07 00:00:45;;;;;;;3.45;1.63;;;;;;;;;;4969528;28;20079;-64
2022/07/07 00:03:12;;;;;;;4.57;1.75;;;;;;;;;;4963896;28;20056;-63
2022/07/07 00:05:39;;;;;;;6.22;2.35;;;;;;;;;;4968269;28;20070;-62
2022/07/07 00:08:06;;;;;;;9.68;3.53;;;;;;;;;;4963562;28;20055;-63
2022/07/07 00:10:33;;;;;;;5.90;2.55;;;;;;;;;;4967887;28;20054;-63
2022/07/07 00:13:00;;;;;;;6.35;2.38;;;;;;;;;;4967886;28;20062;-63
2022/07/07 00:15:28;;;;;;;5.68;2.08;;;;;;;;;;4964394;28;20058;-63
2022/07/07 00:17:55;;;;;;;6.07;3.20;;;;;;;;;;4968283;28;20051;-63
2022/07/07 00:20:22;;;;;;;6.40;2.08;;;;;;;;;;4963276;28;20058;-63
2022/07/07 00:22:49;;;;;;;3.25;1.77;;;;;;;;;;4994033;28;20106;-63
2022/07/07 00:25:15;;;;;;;3.67;1.50;;;;;;;;;;4999953;28;20050;-63
2022/07/07 00:27:42;;;;;;;7.28;2.42;;;;;;;;;;5009620;28;20108;-63
2022/07/07 00:30:09;;;;;;;4.40;2.10;;;;;;;;;;5003715;28;20057;-63
2022/07/07 00:32:37;;;;;;;4.07;1.90;;;;;;;;;;5011216;28;20046;-63
2022/07/07 00:35:04;;;;;;;6.72;2.85;;;;;;;;;;4995398;28;20046;-63
2022/07/07 00:37:31;;;;;;;5.60;1.80;;;;;;;;;;5024503;28;20050;-63
2022/07/07 00:39:57;;;;;;;4.15;2.03;;;;;;;;;;4979602;28;20058;-63
2022/07/07 00:42:25;;;;;;;6.80;3.00;;;;;;;;;;4972079;28;20089;-63
2022/07/07 00:44:51;;;;;;;5.65;2.40;;;;;;;;;;4989741;28;20100;-63
2022/07/07 00:47:19;;;;;;;4.43;1.88;;;;;;;;;;5011038;28;20132;-62
2022/07/07 00:49:47;;;;;;;4.78;2.10;;;;;;;;;;5003380;28;20053;-62
2022/07/07 00:52:16;;;;;;;4.47;1.70;;;;;;;;;;4991739;28;20070;-63
2022/07/07 00:54:50;;;;;;;6.30;2.72;;;;;;;;;;4986795;28;20062;-62
2022/07/07 00:57:17;;;;;;;7.10;2.95;;;;;;;;;;4972042;28;20065;-63
2022/07/07 00:59:43;;;;;;;5.60;2.53;;;;;;;;;;4987942;28;20058;-63
2022/07/07 01:02:11;;;;;;;8.35;3.33;;;;;;;;;;4987272;28;20070;-61
2022/07/07 01:04:38;;;;;;;8.82;3.33;;;;;;;;;;4972011;28;20054;-62
2022/07/07 01:07:06;;;;;;;6.15;2.20;;;;;;;;;;4982220;28;20066;-62
2022/07/07 01:09:33;;;;;;;9.30;3.40;;;;;;;;;;5023743;28;20054;-62
2022/07/07 01:12:00;;;;;;;9.13;3.50;;;;;;;;;;5006730;28;20058;-62
2022/07/07 01:14:26;;;;;;;8.00;2.33;;;;;;;;;;4990400;28;20087;-62
2022/07/07 01:16:53;;;;;;;6.95;3.08;;;;;;;;;;4984683;28;20085;-62
2022/07/07 01:19:21;;;;;;;4.60;2.05;;;;;;;;;;4990087;28;20066;-62
2022/07/07 01:21:53;;;;;;;8.52;3.22;;;;;;;;;;4975904;28;20058;-62
2022/07/07 01:24:21;;;;;;;14.88;3.47;;;;;;;;;;4971070;28;20065;-62
2022/07/07 01:26:48;;;;;;;;;;;;;;;;;;4966508;28;20046;-62
2022/07/07 01:29:15;;;;;;;6.72;2.35;;;;;;;;;;4971144;28;19922;-62
2022/07/07 01:31:41;;;;;;;6.28;2.10;;;;;;;;;;4966585;28;20062;-62
2022/07/07 01:34:08;;;;;;;9.48;3.10;;;;;;;;;;4970095;28;20082;-62
2022/07/07 01:36:35;;;;;;;7.10;2.53;;;;;;;;;;4967376;28;20055;-62
2022/07/07 01:39:01;;;;;;;8.48;3.22;;;;;;;;;;4970328;28;20079;-62
2022/07/07 01:41:30;;;;;;;5.05;2.28;;;;;;;;;;4968397;28;20051;-62
2022/07/07 01:43:56;;;;;;;8.07;3.33;;;;;;;;;;4969066;28;20086;-62
2022/07/07 01:46:23;;;;;;;4.35;2.10;;;;;;;;;;4971272;28;20050;-62
2022/07/07 01:48:50;;;;;;;6.72;2.42;;;;;;;;;;4980745;28;20059;-62
2022/07/07 01:51:18;;;;;;;3.97;1.95;;;;;;;;;;4970468;28;20066;-62
2022/07/07 01:53:44;;;;;;;7.13;2.95;;;;;;;;;;4974280;28;20050;-62
2022/07/07 01:56:11;;;;;;;6.55;2.10;;;;;;;;;;4989743;28;20050;-62
2022/07/07 01:58:39;;;;;;;4.80;2.03;;;;;;;;;;4971861;28;20054;-63
2022/07/07 02:01:06;;;;;;;4.32;1.90;;;;;;;;;;4962650;28;20057;-62
2022/07/07 02:03:32;;;;;;;4.03;1.50;;;;;;;;;;4962679;28;20077;-62
2022/07/07 02:05:59;;;;;;;4.20;1.65;;;;;;;;;;4956061;28;20057;-62
2022/07/07 02:08:26;;;;;;;4.25;1.50;;;;;;;;;;4975746;28;20065;-62
2022/07/07 02:13:36;;;;;;;4.93;1.60;;;;;;;;;;4964292;28;20062;-62
2022/07/07 02:16:07;;;;;;;2.70;1.48;;;;;;;;;;4969713;28;20061;-62
2022/07/07 02:18:36;;;;;;;4.63;1.58;;;;;;;;;;4969510;28;20055;-61
2022/07/07 02:21:04;;;;;;;3.35;1.40;;;;;;;;;;4981942;28;20066;-61
2022/07/07 02:23:30;;;;;;;4.65;1.58;;;;;;;;;;4994604;28;20132;-60
2022/07/07 02:25:57;;;;;;;3.00;1.20;;;;;;;;;;4981513;28;20051;-60
2022/07/07 02:28:24;;;;;;;2.05;1.17;;;;;;;;;;4972840;28;20050;-61
2022/07/07 02:30:50;;;;;;;4.03;1.20;;;;;;;;;;4971114;28;20037;-61
2022/07/07 02:33:19;;;;;;;5.70;1.40;;;;;;;;;;5010008;28;20054;-61
2022/07/07 02:35:45;;;;;;;;;;;;;;;;;;4988877;28;20062;-61
2022/07/07 02:38:13;;;;;;;2.88;1.10;;;;;;;;;;4992503;28;19936;-61
2022/07/07 02:40:40;;;;;;;3.92;1.00;;;;;;;;;;5007238;28;20053;-61
2022/07/07 02:43:07;;;;;;;2.47;1.10;;;;;;;;;;4975487;28;20042;-61
2022/07/07 02:45:34;;;;;;;5.93;1.13;;;;;;;;;;4971582;28;20046;-61
2022/07/07 02:48:00;;;;;;;2.85;1.15;;;;;;;;;;4969797;28;20219;-61
2022/07/07 02:50:29;;;;;;;2.67;1.02;;;;;;;;;;4972703;28;20035;-61
2022/07/07 02:52:56;;;;;;;2.03;0.98;;;;;;;;;;4968399;28;20058;-62
2022/07/07 02:55:23;;;;;;;5.13;1.08;;;;;;;;;;4973718;28;20222;-62
2022/07/07 02:57:50;;;;;;;1.88;1.00;;;;;;;;;;4972308;28;20050;-61
2022/07/07 03:00:18;;;;;;;4.25;0.98;;;;;;;;;;4983836;28;20065;-62
2022/07/07 03:02:44;;;;;;;4.57;1.30;;;;;;;;;;4991663;28;20060;-61
2022/07/07 03:05:11;;;;;;;2.65;1.00;;;;;;;;;;4973998;28;20070;-61
2022/07/07 03:07:39;;;;;;;2.80;1.27;;;;;;;;;;4972428;28;20156;-62
2022/07/07 03:10:06;;;;;;;4.53;1.30;;;;;;;;;;4969005;28;20054;-61
2022/07/07 03:12:32;;;;;;;2.35;1.27;;;;;;;;;;4972585;28;20129;-62
2022/07/07 03:14:59;;;;;;;2.58;1.00;;;;;;;;;;4969907;28;20070;-62
2022/07/07 03:17:26;;;;;;;3.55;1.30;;;;;;;;;;4971611;28;20054;-62
2022/07/07 03:19:52;;;;;;;2.35;1.00;;;;;;;;;;4963051;28;20066;-62
2022/07/07 03:22:19;;;;;;;2.35;1.05;;;;;;;;;;4982475;28;20111;-62
2022/07/07 03:24:47;;;;;;;3.53;1.10;;;;;;;;;;4991304;28;20103;-62
2022/07/07 03:27:13;;;;;;;3.13;1.40;;;;;;;;;;4982630;28;20143;-62
2022/07/07 03:29:39;;;;;;;3.00;1.45;;;;;;;;;;4988179;28;20046;-62
2022/07/07 03:32:07;;;;;;;4.97;1.50;;;;;;;;;;4986796;28;20053;-62
2022/07/07 03:34:33;;;;;;;3.90;1.48;;;;;;;;;;4991003;28;20112;-62
2022/07/07 03:37:00;;;;;;;3.38;1.38;;;;;;;;;;4982156;28;20115;-61
2022/07/07 03:39:26;;;;;;;7.78;1.55;;;;;;;;;;5007886;28;20072;-61
2022/07/07 03:41:58;;;;;;;5.03;1.40;;;;;;;;;;4996719;28;20054;-61
2022/07/07 03:44:25;;;;;;;4.50;1.33;;;;;;;;;;4988390;28;20156;-61
2022/07/07 03:46:51;;;;;;;3.22;1.38;;;;;;;;;;4987868;28;20057;-61
2022/07/07 03:49:18;;;;;;;1.83;1.10;;;;;;;;;;5000625;28;20481;-61
2022/07/07 03:51:46;;;;;;;2.03;1.23;;;;;;;;;;5003783;28;20164;-61
2022/07/07 03:54:14;;;;;;;2.60;1.10;;;;;;;;;;4994246;28;20058;-62
2022/07/07 03:56:40;;;;;;;8.27;1.40;;;;;;;;;;4986636;28;20077;-62
2022/07/07 03:59:08;;;;;;;4.70;1.83;;;;;;;;;;4999169;28;20050;-62
2022/07/07 04:01:36;;;;;;;6.22;1.45;;;;;;;;;;4998152;28;20081;-62
2022/07/07 04:04:04;;;;;;;3.90;1.58;;;;;;;;;;4997915;28;20072;-62
2022/07/07 04:06:31;;;;;;;;;;;;;;;;;;5010667;28;20152;-62
2022/07/07 04:08:58;;;;;;;2.87;1.40;;;;;;;;;;5001136;28;20016;-63
2022/07/07 04:11:26;;;;;;;4.85;1.50;;;;;;;;;;5008127;28;20054;-62
2022/07/07 04:13:53;;;;;;;4.53;1.60;;;;;;;;;;4991032;28;20047;-62
2022/07/07 04:16:21;;;;;;;2.30;1.00;;;;;;;;;;4987337;28;20054;-63
2022/07/07 04:18:47;;;;;;;5.10;1.20;;;;;;;;;;4992583;28;20093;-62
2022/07/07 04:21:14;;;;;;;3.72;1.33;;;;;;;;;;4986501;28;20062;-62
2022/07/07 04:23:40;;;;;;;3.53;1.05;;;;;;;;;;4981488;28;20058;-62
2022/07/07 04:26:07;;;;;;;4.32;1.02;;;;;;;;;;4987605;28;20057;-62
2022/07/07 04:28:35;;;;;;;3.67;0.93;;;;;;;;;;4981884;28;20054;-62
2022/07/07 04:31:02;;;;;;;4.32;0.90;;;;;;;;;;4987781;28;20054;-62
2022/07/07 04:33:30;;;;;;;3.45;1.08;;;;;;;;;;4981329;28;20055;-62
2022/07/07 04:35:57;;;;;;;2.00;0.98;;;;;;;;;;4988009;28;20142;-62
2022/07/07 04:38:23;;;;;;;2.33;0.90;;;;;;;;;;4987785;28;20065;-62
2022/07/07 04:40:50;;;;;;;4.65;0.95;;;;;;;;;;4982579;28;20073;-62
2022/07/07 04:43:17;;;;;;;2.08;0.70;;;;;;;;;;4989271;28;20062;-65
2022/07/07 04:45:44;;;;;;;3.30;1.00;;;;;;;;;;4966650;28;20051;-62
2022/07/07 04:48:10;;;;;;;0.93;0.70;;;;;;;;;;4969767;28;20051;-68
2022/07/07 04:50:39;;;;;;;3.65;1.30;;;;;;;;;;4977880;28;20046;-63
2022/07/07 04:53:06;;;;;;;4.03;0.90;;;;;;;;;;4987328;28;20074;-62
2022/07/07 04:55:32;;;;;;;1.90;0.85;;;;;;;;;;4981069;28;20058;-62
2022/07/07 04:57:59;;;;;;;4.82;1.20;;;;;;;;;;4972272;28;20054;-62
2022/07/07 05:00:26;;;;;;;5.85;1.23;;;;;;;;;;4954344;28;20062;-62
2022/07/07 05:02:52;;;;;;;5.50;0.90;;;;;;;;;;4956559;28;20050;-62
2022/07/07 05:05:19;;;;;;;4.70;1.33;;;;;;;;;;4944894;28;20052;-62
2022/07/07 05:07:47;;;;;;;5.88;1.10;;;;;;;;;;4965673;28;20146;-62
2022/07/07 05:10:14;;;;;;;3.97;0.82;;;;;;;;;;4973830;28;20062;-62
2022/07/07 05:12:40;;;;;;;3.63;1.02;;;;;;;;;;4958980;28;20058;-62
2022/07/07 05:15:07;;;;;;;4.00;0.90;;;;;;;;;;4962416;28;20062;-62
2022/07/07 05:17:34;;;;;;;4.22;1.00;;;;;;;;;;4953376;28;20075;-62
2022/07/07 05:20:01;;;;;;;3.90;0.90;;;;;;;;;;4957870;28;20061;-62
2022/07/07 05:22:27;;;;;;;3.15;1.00;;;;;;;;;;4967415;28;20054;-62
2022/07/07 05:24:55;;;;;;;5.30;1.00;;;;;;;;;;4982007;28;20097;-64
2022/07/07 05:27:22;;;;;;;6.97;1.13;;;;;;;;;;4995559;28;20056;-64
2022/07/07 05:29:48;;;;;;;3.75;0.98;;;;;;;;;;4975427;28;20058;-64
2022/07/07 05:32:16;;;;;;;4.50;1.23;;;;;;;;;;4984932;28;20092;-62
2022/07/07 05:34:42;;;;;;;5.45;1.20;;;;;;;;;;4976401;28;20051;-63
2022/07/07 05:37:09;;;;;;;10.48;1.00;;;;;;;;;;4977582;28;20058;-63
2022/07/07 05:39:35;;;;;;;5.65;1.13;;;;;;;;;;4973447;28;20052;-63
2022/07/07 05:42:05;;;;;;;2.63;1.00;;;;;;;;;;4984521;28;20050;-63
2022/07/07 05:44:31;;;;;;;4.18;1.23;;;;;;;;;;4975841;28;20116;-62
2022/07/07 05:46:58;;;;;;;5.80;1.20;;;;;;;;;;4970318;28;20146;-62
2022/07/07 05:49:25;;;;;;;3.72;1.00;;;;;;;;;;4966203;28;20047;-62
2022/07/07 05:51:55;;;;;;;2.72;1.00;;;;;;;;;;4970258;28;20047;-62
2022/07/07 05:54:21;;;;;;;4.65;1.10;;;;;;;;;;4983813;28;20055;-63
2022/07/07 05:56:48;;;;;;;4.05;0.98;;;;;;;;;;4980760;28;20058;-63
2022/07/07 05:59:16;;;;;;;5.72;1.17;;;;;;;;;;4990049;28;20054;-62
2022/07/07 06:01:43;;;;;;;3.40;0.80;;;;;;;;;;4979733;28;20054;-63
2022/07/07 06:04:09;;;;;;;9.15;1.10;;;;;;;;;;4989217;28;20053;-62
2022/07/07 06:06:36;;;;;;;6.78;1.00;;;;;;;;;;4978886;28;20129;-62
2022/07/07 06:09:02;;;;;;;4.63;0.98;;;;;;;;;;4969926;28;20081;-62
2022/07/07 06:11:29;;;;;;;6.93;0.82;;;;;;;;;;4968380;28;20069;-62
2022/07/07 06:13:57;;;;;;;3.97;0.67;;;;;;;;;;4984990;28;20065;-62
2022/07/07 06:16:40;;;;;;;3.75;1.00;;;;;;;;;;4989339;28;20069;-62
2022/07/07 06:19:07;;;;;;;3.50;0.82;;;;;;;;;;4990519;28;20055;-62
2022/07/07 06:21:34;;;;;;;5.90;1.00;;;;;;;;;;4989524;28;20058;-62
2022/07/07 06:24:00;;;;;;;3.97;0.90;;;;;;;;;;4973784;28;20062;-62
2022/07/07 06:26:27;;;;;;;4.88;0.70;;;;;;;;;;4970010;28;20070;-62
2022/07/07 06:28:53;;;;;;;6.72;0.90;;;;;;;;;;4973293;28;20055;-62
2022/07/07 06:31:21;;;;;;;3.95;0.85;;;;;;;;;;4989423;28;20046;-62
2022/07/07 06:33:49;;;;;;;4.50;1.00;;;;;;;;;;4977914;28;20062;-62
2022/07/07 06:36:16;;;;;;;7.63;1.27;;;;;;;;;;4970898;28;20051;-63
2022/07/07 06:38:43;;;;;;;2.80;0.80;;;;;;;;;;4978656;28;20055;-62
2022/07/07 06:41:10;;;;;;;5.90;1.20;;;;;;;;;;4970193;28;20137;-62
2022/07/07 06:43:37;;;;;;;4.22;0.80;;;;;;;;;;4966288;28;20054;-62
2022/07/07 06:46:03;;;;;;;9.60;1.15;;;;;;;;;;4988645;28;20054;-62
2022/07/07 06:48:30;;;;;;;5.13;0.75;;;;;;;;;;4979711;28;20086;-63
2022/07/07 06:50:58;;;;;;;5.80;0.90;;;;;;;;;;4991697;28;20108;-64
2022/07/07 06:53:25;;;;;;;13.48;4.20;;;;;;;;;;4988367;28;20054;-63
2022/07/07 06:55:51;;;;;;;7.97;2.03;;;;;;;;;;4988640;28;20086;-63
2022/07/07 06:58:18;;;;;;;7.72;1.30;;;;;;;;;;4969211;28;20058;-63
2022/07/07 07:00:45;;;;;;;2.38;1.08;;;;;;;;;;4964946;28;20050;-63
2022/07/07 07:03:11;;;;;;;4.70;0.95;;;;;;;;;;4969059;28;20059;-63
2022/07/07 07:05:38;;;;;;;2.33;0.80;;;;;;;;;;4983511;28;20153;-63
2022/07/07 07:08:06;;;;;;;8.57;1.00;;;;;;;;;;4997422;28;20050;-63
2022/07/07 07:10:33;;;;;;;3.60;0.90;;;;;;;;;;4979380;28;20112;-63
2022/07/07 07:13:00;;;;;;;5.20;1.23;;;;;;;;;;4987585;28;20058;-63
2022/07/07 07:15:27;;;;;;;5.60;1.00;;;;;;;;;;4980257;28;20054;-63
2022/07/07 07:17:53;;;;;;;2.67;0.60;;;;;;;;;;4986969;28;20059;-63
2022/07/07 07:20:20;;;;;;;3.47;0.70;;;;;;;;;;4988414;28;20046;-63
2022/07/07 07:22:47;;;;;;;4.10;0.90;;;;;;;;;;4965429;28;20047;-63
2022/07/07 07:25:15;;;;;;;2.88;0.70;;;;;;;;;;4968676;28;20054;-63
2022/07/07 07:27:42;;;;;;;7.47;0.80;;;;;;;;;;4961804;28;20059;-63
2022/07/07 07:30:09;;;;;;;3.72;0.77;;;;;;;;;;4967124;28;20055;-63
2022/07/07 07:32:36;;;;;;;5.75;0.90;;;;;;;;;;4962496;28;20058;-63
2022/07/07 07:35:02;;;;;;;4.18;0.80;;;;;;;;;;4968133;28;20074;-63
2022/07/07 07:37:29;;;;;;;2.97;0.88;;;;;;;;;;4966593;28;20138;-63
2022/07/07 07:39:58;;;;;;;8.68;1.15;;;;;;;;;;4964400;28;20058;-64
2022/07/07 07:42:26;;;;;;;6.03;0.90;;;;;;;;;;4968339;28;20051;-63
2022/07/07 07:45:11;;;;;;;4.07;0.80;;;;;;;;;;4961557;28;20082;-63
2022/07/07 07:47:38;;;;;;;2.70;0.90;;;;;;;;;;4966991;28;20058;-63
2022/07/07 07:50:05;;;;;;;6.85;0.70;;;;;;;;;;4962394;28;20046;-63
2022/07/07 07:52:32;;;;;;;6.88;0.80;;;;;;;;;;4968805;28;20042;-63
2022/07/07 07:54:59;;;;;;;3.08;0.73;;;;;;;;;;4963264;28;20054;-63
2022/07/07 07:57:27;;;;;;;6.13;0.88;;;;;;;;;;4968675;28;20109;-63
2022/07/07 07:59:53;;;;;;;4.43;0.60;;;;;;;;;;4968289;28;20070;-63
2022/07/07 08:02:20;;;;;;;6.93;0.77;;;;;;;;;;4963161;28;20051;-63
2022/07/07 08:04:46;;;;;;;4.57;0.73;;;;;;;;;;4966685;28;20054;-63
2022/07/07 08:07:13;;;;;;;5.00;1.27;;;;;;;;;;4960108;28;20055;-63
2022/07/07 08:09:39;;;;;;;4.45;1.08;;;;;;;;;;4968042;28;20063;-63
2022/07/07 08:12:06;;;;;;;3.75;0.82;;;;;;;;;;4961856;28;20058;-63
2022/07/07 08:14:35;;;;;;;2.70;0.85;;;;;;;;;;4967843;28;20055;-63
2022/07/07 08:17:01;;;;;;;5.57;1.05;;;;;;;;;;4964385;28;20051;-63
2022/07/07 08:19:28;;;;;;;3.13;0.80;;;;;;;;;;4965655;28;20058;-63
2022/07/07 08:21:54;;;;;;;7.18;0.90;;;;;;;;;;4967626;28;20058;-63
2022/07/07 08:24:21;;;;;;;7.88;0.57;;;;;;;;;;4961900;28;20138;-64
2022/07/07 08:26:48;;;;;;;3.75;0.70;;;;;;;;;;4968480;28;20153;-63
2022/07/07 08:29:15;;;;;;;2.25;0.82;;;;;;;;;;4962167;28;20070;-63
2022/07/07 08:31:43;;;;;;;2.13;0.55;;;;;;;;;;4966493;28;20142;-62
2022/07/07 08:34:09;;;;;;;1.77;0.60;;;;;;;;;;4958053;28;20065;-63
2022/07/07 08:36:36;;;;;;;3.05;0.68;;;;;;;;;;4967810;28;20054;-63
2022/07/07 08:39:02;;;;;;;2.47;0.77;;;;;;;;;;4962731;28;20061;-63
2022/07/07 08:41:30;;;;;;;2.95;0.88;;;;;;;;;;4968036;28;20058;-63
2022/07/07 08:43:57;;;;;;;1.67;0.70;;;;;;;;;;4963382;28;20054;-63
2022/07/07 08:46:24;;;;;;;4.28;0.60;;;;;;;;;;4971189;28;20063;-63
2022/07/07 08:48:53;;;;;;;4.00;0.80;;;;;;;;;;4983227;28;20051;-63
2022/07/07 08:51:21;;;;;;;3.13;0.60;;;;;;;;;;4971857;28;20054;-63
2022/07/07 08:53:48;;;;;;;1.98;0.60;;;;;;;;;;4966694;28;20054;-63
2022/07/07 08:56:15;;;;;;;2.97;0.63;;;;;;;;;;4969992;28;20145;-63
2022/07/07 08:58:43;;;;;;;2.67;0.50;;;;;;;;;;4970288;28;20061;-64
2022/07/07 09:01:09;;;;;;;2.42;0.77;;;;;;;;;;4965024;28;20051;-63
2022/07/07 09:03:36;;;;;;;2.55;0.70;;;;;;;;;;4971151;28;20073;-63
2022/07/07 09:06:04;;;;;;;1.40;0.70;;;;;;;;;;4965664;28;20168;-63
2022/07/07 09:08:32;;;;;;;2.92;0.70;;;;;;;;;;4971664;28;20058;-63
2022/07/07 09:10:58;;;;;;;2.08;0.60;;;;;;;;;;4966571;28;20054;-63
2022/07/07 09:13:26;;;;;;;4.20;0.63;;;;;;;;;;4971701;28;20047;-62
2022/07/07 09:15:53;;;;;;;2.53;0.47;;;;;;;;;;4976626;28;20062;-63
2022/07/07 09:18:34;;;;;;;3.47;0.60;;;;;;;;;;4990779;28;20046;-62
2022/07/07 09:21:01;;;;;;;1.65;0.60;;;;;;;;;;4987124;28;20085;-62
2022/07/07 09:23:29;;;;;;;0.85;0.45;;;;;;;;;;5013446;28;20060;-62
2022/07/07 09:25:56;;;;;;;3.30;0.65;;;;;;;;;;5003665;28;20054;-62
2022/07/07 09:28:22;;;;;;;2.28;0.70;;;;;;;;;;5010675;28;20042;-63
2022/07/07 09:30:50;;;;;;;3.60;0.70;;;;;;;;;;4998792;28;20109;-62
2022/07/07 09:33:20;;;;;;;5.70;0.60;;;;;;;;;;4990262;28;20058;-63
2022/07/07 09:38:33;;;;;;;5.93;0.90;;;;;;;;;;4993344;28;20057;-64
2022/07/07 09:41:02;;;;;;;2.92;0.70;;;;;;;;;;4987593;28;20048;-64
2022/07/07 09:43:29;;;;;;;1.83;0.50;;;;;;;;;;4988918;28;20054;-63
2022/07/07 09:46:06;;;;;;;0.80;0.47;;;;;;;;;;5004480;28;20140;-63
2022/07/07 09:48:33;;;;;;;3.95;0.60;;;;;;;;;;4991852;28;20120;-63
2022/07/07 09:51:10;;;;;;;2.28;0.40;;;;;;;;;;4988870;28;20129;-63
2022/07/07 09:53:52;;;;;;;1.15;0.40;;;;;;;;;;4998423;28;20074;-63
2022/07/07 09:56:19;;;;;;;3.22;0.80;;;;;;;;;;4985808;28;20058;-63
2022/07/07 09:58:46;;;;;;;2.83;0.80;;;;;;;;;;5008231;28;20111;-63
2022/07/07 10:01:13;;;;;;;2.17;0.73;;;;;;;;;;4993507;28;20057;-63
2022/07/07 10:03:42;;;;;;;2.80;0.90;;;;;;;;;;4982689;28;20061;-64
2022/07/07 10:06:09;;;;;;;3.45;0.70;;;;;;;;;;4992501;28;20056;-63
2022/07/07 10:08:36;;;;;;;2.80;0.60;;;;;;;;;;4970701;28;20054;-63
2022/07/07 10:11:06;;;;;;;3.08;0.82;;;;;;;;;;4973018;28;20054;-63
2022/07/07 10:13:35;;;;;;;1.60;0.47;;;;;;;;;;4983729;28;20050;-63
2022/07/07 10:16:02;;;;;;;1.10;0.57;;;;;;;;;;4991949;28;20131;-64
2022/07/07 10:18:28;;;;;;;2.30;0.43;;;;;;;;;;4984136;28;20057;-63
2022/07/07 10:20:55;;;;;;;4.18;0.47;;;;;;;;;;4988781;28;20062;-63
2022/07/07 10:23:22;;;;;;;1.55;0.60;;;;;;;;;;4986865;28;20082;-63
2022/07/07 10:25:59;;;;;;;2.08;0.65;;;;;;;;;;4983055;28;20058;-63
2022/07/07 10:28:41;;;;;;;3.85;0.70;;;;;;;;;;4986745;28;20064;-63
2022/07/07 10:31:20;;;;;;;2.15;0.43;;;;;;;;;;4992607;28;20053;-64
2022/07/07 10:33:51;;;;;;;1.75;0.50;;;;;;;;;;4986921;28;20050;-63
2022/07/07 10:36:17;;;;;;;0.90;0.52;;;;;;;;;;4992228;28;20204;-63
2022/07/07 10:38:44;;;;;;;2.22;0.68;;;;;;;;;;4989770;28;20065;-64
2022/07/07 10:41:11;;;;;;;4.78;1.45;;;;;;;;;;4991952;28;20046;-63
2022/07/07 10:43:42;;;;;;;8.15;1.08;;;;;;;;;;4988832;28;20062;-63
2022/07/07 10:46:09;;;;;;;3.35;1.00;;;;;;;;;;5008457;28;20065;-63
2022/07/07 10:48:44;;;;;;;2.50;0.65;;;;;;;;;;5005419;28;20038;-64
2022/07/07 10:51:21;;;;;;;2.30;0.70;;;;;;;;;;5012008;28;20053;-63
2022/07/07 10:54:06;;;;;;;2.35;0.75;;;;;;;;;;5015432;28;20061;-64
2022/07/07 10:56:51;;;;;;;2.05;0.85;;;;;;;;;;4991334;28;20061;-63
2022/07/07 10:59:18;;;;;;;2.22;0.75;;;;;;;;;;4984054;28;20058;-63
2022/07/07 11:02:08;;;;;;;3.22;1.00;;;;;;;;;;4988790;28;20062;-63
2022/07/07 11:04:48;;;;;;;3.13;0.70;;;;;;;;;;4977055;28;20050;-63
2022/07/07 11:07:15;;;;;;;2.53;0.70;;;;;;;;;;4978277;28;20061;-63
2022/07/07 11:09:58;;;;;;;5.07;0.98;;;;;;;;;;4978527;28;20065;-63
2022/07/07 11:12:35;;;;;;;1.83;0.77;;;;;;;;;;4982417;28;20050;-63
2022/07/07 11:15:16;;;;;;;3.40;0.70;;;;;;;;;;4981769;28;20097;-63
2022/07/07 11:17:43;;;;;;;1.90;0.60;;;;;;;;;;4967951;28;20054;-63
2022/07/07 11:20:14;;;;;;;2.15;0.80;;;;;;;;;;4969694;28;20056;-63
2022/07/07 11:22:43;;;;;;;3.78;1.08;;;;;;;;;;4986523;28;20073;-63
2022/07/07 11:25:11;;;;;;;3.05;0.90;;;;;;;;;;4991187;28;20053;-63
2022/07/07 11:27:37;;;;;;;2.97;0.88;;;;;;;;;;4983616;28;20335;-63
2022/07/07 11:30:04;;;;;;;3.67;0.85;;;;;;;;;;4991088;28;20049;-63
2022/07/07 11:32:36;;;;;;;4.15;0.93;;;;;;;;;;4978005;28;20038;-63
2022/07/07 11:35:05;;;;;;;5.70;1.10;;;;;;;;;;4971250;28;20082;-62
2022/07/07 11:37:34;;;;;;;4.82;1.00;;;;;;;;;;4968726;28;20066;-63
2022/07/07 11:40:01;;;;;;;6.28;0.90;;;;;;;;;;4990973;28;20050;-63
2022/07/07 11:42:35;;;;;;;4.60;1.05;;;;;;;;;;4991183;28;20064;-63
2022/07/07 11:45:01;;;;;;;3.80;0.80;;;;;;;;;;4969949;28;20058;-63
2022/07/07 11:47:32;;;;;;;5.85;1.10;;;;;;;;;;4971341;28;20062;-63
2022/07/07 11:49:59;;;;;;;2.78;0.90;;;;;;;;;;4969478;28;20050;-63
2022/07/07 11:52:26;;;;;;;3.55;0.80;;;;;;;;;;4988149;28;20126;-63
2022/07/07 11:54:54;;;;;;;2.30;0.70;;;;;;;;;;4985283;28;20054;-63
2022/07/07 11:57:27;;;;;;;1.70;0.90;;;;;;;;;;4971390;28;20062;-62
2022/07/07 11:59:54;;;;;;;2.33;0.80;;;;;;;;;;4967062;28;20050;-63
2022/07/07 12:02:20;;;;;;;3.13;0.80;;;;;;;;;;4991070;28;20054;-63
2022/07/07 12:04:47;;;;;;;6.43;1.10;;;;;;;;;;4990528;28;20058;-63
2022/07/07 12:07:14;;;;;;;2.58;0.90;;;;;;;;;;4982313;28;20061;-63
2022/07/07 12:09:45;;;;;;;3.53;0.85;;;;;;;;;;4990840;28;20046;-64
2022/07/07 12:12:19;;;;;;;4.47;1.10;;;;;;;;;;4957481;28;20054;-64
2022/07/07 12:14:47;;;;;;;4.20;0.93;;;;;;;;;;4971457;28;20079;-63
2022/07/07 12:17:13;;;;;;;5.22;1.10;;;;;;;;;;4966831;28;20109;-63
2022/07/07 12:19:46;;;;;;;4.25;1.08;;;;;;;;;;4971026;28;20057;-63
2022/07/07 12:22:12;;;;;;;5.15;1.23;;;;;;;;;;4970891;28;20057;-63
2022/07/07 12:24:39;;;;;;;3.08;0.80;;;;;;;;;;4989080;28;20059;-65
2022/07/07 12:27:16;;;;;;;7.03;1.10;;;;;;;;;;4982485;28;20079;-63
2022/07/07 12:29:57;;;;;;;7.30;1.30;;;;;;;;;;5010814;28;20113;-63
2022/07/07 12:32:28;;;;;;;3.70;0.85;;;;;;;;;;5003103;28;20057;-64
2022/07/07 12:34:55;;;;;;;9.40;1.45;;;;;;;;;;5007265;28;20050;-63
2022/07/07 12:37:22;;;;;;;7.15;1.05;;;;;;;;;;5006050;28;20065;-63
2022/07/07 12:39:50;;;;;;;6.65;1.42;;;;;;;;;;4987824;28;20050;-63
2022/07/07 12:42:24;;;;;;;6.85;1.00;;;;;;;;;;4989919;28;20054;-64
2022/07/07 12:44:50;;;;;;;8.27;1.30;;;;;;;;;;4998429;28;20050;-63
2022/07/07 12:47:17;;;;;;;12.35;1.30;;;;;;;;;;5006574;28;20141;-63
2022/07/07 12:49:54;;;;;;;6.38;1.25;;;;;;;;;;4989189;28;20041;-63
2022/07/07 12:52:20;;;;;;;5.00;1.02;;;;;;;;;;4990523;28;20042;-63
2022/07/07 12:54:47;;;;;;;5.90;1.23;;;;;;;;;;4970965;28;20129;-63
2022/07/07 12:57:15;;;;;;;4.20;1.27;;;;;;;;;;4970837;28;20074;-63
2022/07/07 12:59:45;;;;;;;3.45;0.85;;;;;;;;;;4978143;28;20049;-63
2022/07/07 13:02:14;;;;;;;16.25;1.65;;;;;;;;;;4990208;28;20057;-63
2022/07/07 13:04:42;;;;;;;8.23;0.90;;;;;;;;;;4991154;28;20138;-63
2022/07/07 13:07:09;;;;;;;;;;;;;;;;;;5006600;28;20068;-63
2022/07/07 13:09:38;;;;;;;6.03;1.38;;;;;;;;;;4995879;28;19926;-63
2022/07/07 13:12:05;;;;;;;15.30;1.30;;;;;;;;;;4989602;28;20050;-63
2022/07/07 13:14:32;;;;;;;3.90;1.10;;;;;;;;;;4984540;28;20057;-64
2022/07/07 13:16:59;;;;;;;6.22;1.17;;;;;;;;;;4990174;28;20046;-63
2022/07/07 13:19:28;;;;;;;11.52;1.38;;;;;;;;;;4984351;28;20137;-63
2022/07/07 13:21:55;;;;;;;5.05;1.35;;;;;;;;;;5005685;28;20185;-63
2022/07/07 13:24:21;;;;;;;6.53;1.02;;;;;;;;;;4983877;28;20077;-63
2022/07/07 13:26:49;;;;;;;7.30;1.48;;;;;;;;;;4999524;28;20053;-64
2022/07/07 13:29:17;;;;;;;11.23;1.83;;;;;;;;;;4990655;28;20077;-63
2022/07/07 13:31:44;;;;;;;5.13;1.20;;;;;;;;;;4987903;28;20050;-63
2022/07/07 13:34:10;;;;;;;7.38;1.50;;;;;;;;;;4993283;28;20054;-63
2022/07/07 13:36:37;;;;;;;8.07;1.63;;;;;;;;;;5000569;28;20061;-63
2022/07/07 13:39:04;;;;;;;7.38;1.33;;;;;;;;;;5026153;28;20117;-64
2022/07/07 13:41:33;;;;;;;7.72;1.05;;;;;;;;;;4993399;28;20046;-64
2022/07/07 13:44:01;;;;;;;7.00;1.30;;;;;;;;;;4993590;28;20112;-64
2022/07/07 13:46:28;;;;;;;6.22;1.30;;;;;;;;;;4976094;28;20058;-63
2022/07/07 13:48:55;;;;;;;9.10;1.35;;;;;;;;;;4974258;28;20090;-64
2022/07/07 13:51:21;;;;;;;11.40;1.27;;;;;;;;;;4975803;28;20043;-63
2022/07/07 13:53:48;;;;;;;12.20;1.25;;;;;;;;;;4989825;28;20062;-63
2022/07/07 13:56:15;;;;;;;4.47;0.85;;;;;;;;;;4981014;28;20050;-64
2022/07/07 13:58:41;;;;;;;5.43;1.20;;;;;;;;;;4985974;28;20045;-64
2022/07/07 14:01:10;;;;;;;7.10;1.75;;;;;;;;;;4978326;28;20141;-64
2022/07/07 14:03:36;;;;;;;6.82;1.30;;;;;;;;;;4983960;28;20061;-64
2022/07/07 14:06:03;;;;;;;4.40;0.85;;;;;;;;;;4983839;28;20142;-64
2022/07/07 14:08:29;;;;;;;6.32;1.45;;;;;;;;;;5008723;28;20077;-64
2022/07/07 14:10:56;;;;;;;6.78;1.55;;;;;;;;;;5009343;28;20053;-63
2022/07/07 14:13:23;;;;;;;5.57;1.00;;;;;;;;;;5002315;28;20131;-64
2022/07/07 14:15:49;;;;;;;4.57;1.00;;;;;;;;;;5008801;28;20054;-64
2022/07/07 14:18:17;;;;;;;5.72;1.30;;;;;;;;;;4986898;28;20066;-63
2022/07/07 14:20:45;;;;;;;19.33;2.15;;;;;;;;;;4989650;28;20138;-63
2022/07/07 14:23:12;;;;;;;3.53;0.98;;;;;;;;;;4997562;28;20050;-63
2022/07/07 14:25:39;;;;;;;8.02;1.50;;;;;;;;;;5000786;28;20042;-62
2022/07/07 14:28:05;;;;;;;8.05;0.98;;;;;;;;;;4983978;28;20058;-63
2022/07/07 14:30:33;;;;;;;6.18;0.90;;;;;;;;;;4989324;28;20054;-63
2022/07/07 14:32:59;;;;;;;1.77;0.77;;;;;;;;;;4992880;28;20057;-63
2022/07/07 14:35:27;;;;;;;5.32;0.90;;;;;;;;;;5008889;28;20054;-64
2022/07/07 14:37:54;;;;;;;7.68;1.17;;;;;;;;;;4996533;28;20178;-64
2022/07/07 14:40:22;;;;;;;4.53;1.00;;;;;;;;;;4988711;28;20116;-62
2022/07/07 14:42:49;;;;;;;6.18;1.23;;;;;;;;;;4977701;28;20046;-63
2022/07/07 14:45:15;;;;;;;10.52;1.30;;;;;;;;;;4983241;28;20085;-63
2022/07/07 14:47:42;;;;;;;7.00;1.20;;;;;;;;;;4978367;28;20058;-62
2022/07/07 14:50:09;;;;;;;2.97;0.77;;;;;;;;;;4982708;28;20153;-62
2022/07/07 14:52:37;;;;;;;5.47;0.93;;;;;;;;;;4981360;28;20046;-62